Wetterdaten: Woche 21.11.11 - 27.11.11 (KW47)
Datum Zeit Temperatur Luftfeuchte Luftdruck Niederschlag Windrichtung Sonnenschein Solar Wind
21.11.2011 00:00 0,0 C 96 % 1021,3 hPa 0,0 l/m N 0,00 h 0 W/m 0,9 km/h (0 Bft)
21.11.2011 01:00 -0,6 C 97 % 1021,0 hPa 0,0 l/m N 0,00 h 0 W/m 1,5 km/h (1 Bft)
21.11.2011 02:00 -1,1 C 97 % 1020,8 hPa 0,0 l/m N 0,00 h 0 W/m 2,3 km/h (1 Bft)
21.11.2011 03:00 -1,3 C 97 % 1020,5 hPa 0,0 l/m N 0,00 h 0 W/m 1,1 km/h (0 Bft)
21.11.2011 04:00 -1,4 C 97 % 1020,4 hPa 0,0 l/m N 0,00 h 0 W/m 1,3 km/h (1 Bft)
21.11.2011 05:00 -1,5 C 98 % 1020,4 hPa 0,0 l/m N 0,00 h 0 W/m 0,4 km/h (0 Bft)
21.11.2011 06:00 -1,3 C 98 % 1020,4 hPa 0,0 l/m N 0,00 h 0 W/m 0,0 km/h (0 Bft)
21.11.2011 07:00 -1,4 C 98 % 1020,3 hPa 0,0 l/m N 0,00 h 8 W/m 0,7 km/h (0 Bft)
21.11.2011 08:00 -1,6 C 98 % 1020,4 hPa 0,0 l/m N 0,00 h 23 W/m 0,0 km/h (0 Bft)
21.11.2011 09:00 -1,1 C 98 % 1020,4 hPa 0,0 l/m N 0,50 h 129 W/m 0,7 km/h (0 Bft)
21.11.2011 10:00 0,8 C 99 % 1020,3 hPa 0,0 l/m N 1,00 h 276 W/m 0,9 km/h (0 Bft)
21.11.2011 11:00 4,9 C 87 % 1019,7 hPa 0,0 l/m N 1,00 h 344 W/m 2,5 km/h (1 Bft)
21.11.2011 12:00 7,7 C 78 % 1018,7 hPa 0,0 l/m N 1,00 h 355 W/m 4,1 km/h (1 Bft)
21.11.2011 13:00 9,7 C 73 % 1018,1 hPa 0,0 l/m N 0,92 h 297 W/m 4,4 km/h (1 Bft)
21.11.2011 14:00 10,5 C 68 % 1017,6 hPa 0,0 l/m N 1,00 h 227 W/m 4,3 km/h (1 Bft)
21.11.2011 15:00 9,9 C 69 % 1017,4 hPa 0,0 l/m N 0,25 h 70 W/m 4,0 km/h (1 Bft)
21.11.2011 16:00 7,0 C 83 % 1017,6 hPa 0,0 l/m N 0,08 h 13 W/m 2,5 km/h (1 Bft)
21.11.2011 17:00 4,8 C 91 % 1017,8 hPa 0,0 l/m N 0,00 h 0 W/m 1,6 km/h (1 Bft)
21.11.2011 18:00 3,9 C 95 % 1018,1 hPa 0,0 l/m N 0,00 h 0 W/m 3,5 km/h (1 Bft)
21.11.2011 19:00 3,3 C 96 % 1018,2 hPa 0,0 l/m N 0,00 h 0 W/m 4,9 km/h (1 Bft)
21.11.2011 20:00 2,6 C 97 % 1018,2 hPa 0,0 l/m N 0,00 h 0 W/m 5,9 km/h (2 Bft)
21.11.2011 21:00 2,0 C 97 % 1018,3 hPa 0,0 l/m N 0,00 h 0 W/m 4,4 km/h (1 Bft)
21.11.2011 22:00 1,5 C 97 % 1018,3 hPa 0,0 l/m N 0,00 h 0 W/m 2,9 km/h (1 Bft)
21.11.2011 23:00 1,2 C 97 % 1018,2 hPa 0,0 l/m N 0,00 h 0 W/m 3,9 km/h (1 Bft)
22.11.2011 00:00 1,2 C 97 % 1018,3 hPa 0,0 l/m N 0,00 h 0 W/m 3,7 km/h (1 Bft)
22.11.2011 01:00 1,0 C 97 % 1018,0 hPa 0,2 l/m N 0,00 h 0 W/m 3,9 km/h (1 Bft)
22.11.2011 02:00 0,6 C 97 % 1017,8 hPa 0,0 l/m N 0,00 h 0 W/m 3,1 km/h (1 Bft)
22.11.2011 03:00 0,1 C 97 % 1017,7 hPa 0,0 l/m N 0,00 h 0 W/m 2,4 km/h (1 Bft)
22.11.2011 04:00 -0,4 C 98 % 1017,5 hPa 0,0 l/m N 0,00 h 0 W/m 3,1 km/h (1 Bft)
22.11.2011 05:00 -0,7 C 98 % 1017,7 hPa 0,0 l/m N 0,00 h 0 W/m 2,1 km/h (1 Bft)
22.11.2011 06:00 -1,0 C 98 % 1017,9 hPa 0,0 l/m N 0,00 h 0 W/m 1,5 km/h (1 Bft)
22.11.2011 07:00 -1,3 C 98 % 1018,2 hPa 0,0 l/m N 0,00 h 6 W/m 1,7 km/h (1 Bft)
22.11.2011 08:00 -1,5 C 98 % 1018,7 hPa 0,0 l/m N 0,00 h 23 W/m 3,1 km/h (1 Bft)
22.11.2011 09:00 -1,1 C 98 % 1019,1 hPa 0,0 l/m N 0,00 h 57 W/m 2,4 km/h (1 Bft)
22.11.2011 10:00 -0,6 C 99 % 1019,3 hPa 0,0 l/m N 0,00 h 86 W/m 1,9 km/h (1 Bft)
22.11.2011 11:00 0,2 C 99 % 1019,3 hPa 0,0 l/m N 0,00 h 119 W/m 2,7 km/h (1 Bft)
22.11.2011 12:00 1,2 C 99 % 1019,1 hPa 0,0 l/m N 0,00 h 117 W/m 4,5 km/h (1 Bft)
22.11.2011 13:00 1,9 C 99 % 1018,8 hPa 0,0 l/m N 0,00 h 105 W/m 4,0 km/h (1 Bft)
22.11.2011 14:00 2,4 C 99 % 1018,6 hPa 0,0 l/m N 0,00 h 59 W/m 4,5 km/h (1 Bft)
22.11.2011 15:00 2,2 C 99 % 1018,9 hPa 0,0 l/m N 0,00 h 25 W/m 4,1 km/h (1 Bft)
22.11.2011 16:00 1,6 C 99 % 1019,4 hPa 0,0 l/m N 0,00 h 8 W/m 3,7 km/h (1 Bft)
22.11.2011 17:00 0,7 C 98 % 1020,1 hPa 0,0 l/m N 0,00 h 0 W/m 5,7 km/h (1 Bft)
22.11.2011 18:00 0,1 C 98 % 1020,8 hPa 0,0 l/m N 0,00 h 0 W/m 4,7 km/h (1 Bft)
22.11.2011 19:00 -0,2 C 98 % 1021,2 hPa 0,0 l/m N 0,00 h 0 W/m 4,4 km/h (1 Bft)
22.11.2011 20:00 -0,2 C 98 % 1021,8 hPa 0,0 l/m N 0,00 h 0 W/m 2,7 km/h (1 Bft)
22.11.2011 21:00 -0,3 C 99 % 1022,2 hPa 0,0 l/m N 0,00 h 0 W/m 2,4 km/h (1 Bft)
22.11.2011 22:00 -0,6 C 98 % 1022,6 hPa 0,0 l/m N 0,00 h 0 W/m 2,0 km/h (1 Bft)
22.11.2011 23:00 -0,8 C 99 % 1022,9 hPa 0,0 l/m N 0,00 h 0 W/m 0,8 km/h (0 Bft)
23.11.2011 00:00 -0,8 C 99 % 1023,1 hPa 0,0 l/m N 0,00 h 0 W/m 0,9 km/h (0 Bft)
23.11.2011 01:00 -0,8 C 99 % 1023,2 hPa 0,0 l/m N 0,00 h 0 W/m 2,3 km/h (1 Bft)
23.11.2011 02:00 -0,8 C 99 % 1023,5 hPa 0,0 l/m N 0,00 h 0 W/m 2,8 km/h (1 Bft)
23.11.2011 03:00 -0,9 C 99 % 1023,5 hPa 0,0 l/m N 0,00 h 0 W/m 3,3 km/h (1 Bft)
23.11.2011 04:00 -0,9 C 99 % 1023,8 hPa 0,0 l/m N 0,00 h 0 W/m 3,3 km/h (1 Bft)
23.11.2011 05:00 -1,1 C 99 % 1024,3 hPa 0,0 l/m N 0,00 h 0 W/m 2,8 km/h (1 Bft)
23.11.2011 06:00 -1,1 C 99 % 1024,8 hPa 0,0 l/m N-NO 0,00 h 0 W/m 3,2 km/h (1 Bft)
23.11.2011 07:00 -1,2 C 99 % 1025,5 hPa 0,0 l/m N-NO 0,00 h 0 W/m 4,4 km/h (1 Bft)
23.11.2011 08:00 -1,2 C 99 % 1026,4 hPa 0,0 l/m N-NO 0,00 h 10 W/m 2,5 km/h (1 Bft)
23.11.2011 09:00 -1,0 C 99 % 1026,8 hPa 0,0 l/m N-NO 0,00 h 26 W/m 2,9 km/h (1 Bft)
23.11.2011 10:00 -0,8 C 99 % 1027,2 hPa 0,0 l/m N-NO 0,00 h 40 W/m 3,5 km/h (1 Bft)
23.11.2011 11:00 -0,6 C 99 % 1027,3 hPa 0,0 l/m N-NO 0,00 h 53 W/m 4,8 km/h (1 Bft)
23.11.2011 12:00 -0,2 C 99 % 1027,1 hPa 0,0 l/m N-NO 0,00 h 52 W/m 6,5 km/h (2 Bft)
23.11.2011 13:00 0,1 C 99 % 1027,0 hPa 0,0 l/m N-NO 0,00 h 45 W/m 7,1 km/h (2 Bft)
23.11.2011 14:00 0,1 C 99 % 1027,3 hPa 0,0 l/m N-NO 0,00 h 33 W/m 9,1 km/h (2 Bft)
23.11.2011 15:00 0,1 C 99 % 1027,6 hPa 0,0 l/m NO 0,00 h 15 W/m 5,9 km/h (2 Bft)
23.11.2011 16:00 -0,2 C 99 % 1028,1 hPa 0,0 l/m NO 0,00 h 6 W/m 7,2 km/h (2 Bft)
23.11.2011 17:00 -0,5 C 99 % 1028,8 hPa 0,0 l/m NO 0,00 h 0 W/m 7,6 km/h (2 Bft)
23.11.2011 18:00 -0,7 C 99 % 1029,7 hPa 0,0 l/m O-NO 0,00 h 0 W/m 6,7 km/h (2 Bft)
23.11.2011 19:00 -0,8 C 99 % 1030,2 hPa 0,0 l/m O-NO 0,00 h 0 W/m 5,6 km/h (1 Bft)
23.11.2011 20:00 -1,0 C 99 % 1030,9 hPa 0,0 l/m NO 0,00 h 0 W/m 7,6 km/h (2 Bft)
23.11.2011 21:00 -1,1 C 99 % 1031,6 hPa 0,0 l/m NO 0,00 h 0 W/m 5,7 km/h (1 Bft)
23.11.2011 22:00 -1,2 C 99 % 1031,9 hPa 0,0 l/m NO 0,00 h 0 W/m 6,0 km/h (2 Bft)
23.11.2011 23:00 -1,2 C 99 % 1032,2 hPa 0,0 l/m NO 0,00 h 0 W/m 4,5 km/h (1 Bft)
24.11.2011 00:00 -1,5 C 99 % 1032,5 hPa 0,0 l/m NO 0,00 h 0 W/m 2,9 km/h (1 Bft)
24.11.2011 01:00 -1,4 C 99 % 1032,4 hPa 0,0 l/m NO 0,00 h 0 W/m 3,5 km/h (1 Bft)
24.11.2011 02:00 -1,6 C 99 % 1032,7 hPa 0,0 l/m NO 0,00 h 0 W/m 4,8 km/h (1 Bft)
24.11.2011 03:00 -1,8 C 99 % 1032,6 hPa 0,0 l/m O-NO 0,00 h 0 W/m 4,1 km/h (1 Bft)
24.11.2011 04:00 -1,9 C 99 % 1033,0 hPa 0,0 l/m O-NO 0,00 h 0 W/m 5,3 km/h (1 Bft)
24.11.2011 05:00 -2,1 C 99 % 1033,4 hPa 0,0 l/m O-NO 0,00 h 0 W/m 7,1 km/h (2 Bft)
24.11.2011 06:00 -2,3 C 99 % 1034,1 hPa 0,0 l/m O 0,00 h 0 W/m 5,7 km/h (1 Bft)
24.11.2011 07:00 -2,3 C 99 % 1034,4 hPa 0,0 l/m O 0,00 h 5 W/m 7,5 km/h (2 Bft)
24.11.2011 08:00 -2,3 C 99 % 1034,8 hPa 0,0 l/m O 0,00 h 13 W/m 5,2 km/h (1 Bft)
24.11.2011 09:00 -2,1 C 99 % 1034,9 hPa 0,0 l/m O-NO 0,00 h 33 W/m 2,9 km/h (1 Bft)
24.11.2011 10:00 -1,9 C 99 % 1035,1 hPa 0,0 l/m O-NO 0,00 h 47 W/m 5,2 km/h (1 Bft)
24.11.2011 11:00 -1,5 C 99 % 1034,8 hPa 0,0 l/m O-NO 0,00 h 64 W/m 5,1 km/h (1 Bft)
24.11.2011 12:00 -1,3 C 98 % 1034,2 hPa 0,0 l/m O-NO 0,00 h 53 W/m 3,5 km/h (1 Bft)
24.11.2011 13:00 -1,0 C 97 % 1033,7 hPa 0,0 l/m O-NO 0,00 h 54 W/m 5,3 km/h (1 Bft)
24.11.2011 14:00 -0,6 C 97 % 1033,4 hPa 0,0 l/m O-NO 0,00 h 35 W/m 6,0 km/h (2 Bft)
24.11.2011 15:00 -0,6 C 97 % 1033,3 hPa 0,0 l/m NO 0,00 h 17 W/m 7,2 km/h (2 Bft)
24.11.2011 16:00 -0,7 C 97 % 1033,0 hPa 0,0 l/m O-NO 0,00 h 6 W/m 8,2 km/h (2 Bft)
24.11.2011 17:00 -0,8 C 98 % 1033,1 hPa 0,0 l/m O-NO 0,00 h 0 W/m 8,0 km/h (2 Bft)
24.11.2011 18:00 -0,9 C 98 % 1033,2 hPa 0,0 l/m O-NO 0,00 h 0 W/m 6,1 km/h (2 Bft)
24.11.2011 19:00 -0,9 C 98 % 1033,3 hPa 0,0 l/m O-NO 0,00 h 0 W/m 4,9 km/h (1 Bft)
24.11.2011 20:00 -1,1 C 98 % 1033,3 hPa 0,0 l/m N 0,00 h 0 W/m 2,7 km/h (1 Bft)
24.11.2011 21:00 -1,2 C 98 % 1033,2 hPa 0,0 l/m O-NO 0,00 h 0 W/m 3,9 km/h (1 Bft)
24.11.2011 22:00 -1,2 C 98 % 1032,7 hPa 0,0 l/m N 0,00 h 0 W/m 1,5 km/h (1 Bft)
24.11.2011 23:00 -1,3 C 98 % 1032,3 hPa 0,0 l/m N 0,00 h 0 W/m 1,1 km/h (0 Bft)
25.11.2011 00:00 -1,4 C 98 % 1031,9 hPa 0,0 l/m N 0,00 h 0 W/m 1,2 km/h (1 Bft)
25.11.2011 01:00 -1,4 C 98 % 1031,5 hPa 0,0 l/m O-NO 0,00 h 0 W/m 1,6 km/h (1 Bft)
25.11.2011 02:00 -1,4 C 98 % 1031,2 hPa 0,0 l/m SW 0,00 h 0 W/m 7,1 km/h (2 Bft)
25.11.2011 03:00 -1,5 C 98 % 1031,0 hPa 0,0 l/m SW 0,00 h 0 W/m 6,4 km/h (2 Bft)
25.11.2011 04:00 -1,4 C 99 % 1030,8 hPa 0,0 l/m W-SW 0,00 h 0 W/m 7,8 km/h (2 Bft)
25.11.2011 05:00 -1,3 C 99 % 1030,7 hPa 0,0 l/m S-SW 0,00 h 0 W/m 9,4 km/h (2 Bft)
25.11.2011 06:00 -1,6 C 99 % 1030,8 hPa 0,0 l/m SW 0,00 h 0 W/m 9,1 km/h (2 Bft)
25.11.2011 07:00 -1,2 C 99 % 1030,8 hPa 0,0 l/m W-SW 0,00 h 0 W/m 11,0 km/h (2 Bft)
25.11.2011 08:00 -1,0 C 99 % 1031,1 hPa 0,0 l/m W-SW 0,00 h 11 W/m 11,1 km/h (2 Bft)
25.11.2011 09:00 -0,7 C 99 % 1031,5 hPa 0,0 l/m SW 0,00 h 31 W/m 10,9 km/h (2 Bft)
25.11.2011 10:00 -0,3 C 99 % 1031,4 hPa 0,0 l/m W-SW 0,00 h 54 W/m 12,4 km/h (3 Bft)
25.11.2011 11:00 0,6 C 99 % 1031,0 hPa 0,0 l/m SW 0,00 h 66 W/m 12,1 km/h (2 Bft)
25.11.2011 12:00 1,2 C 98 % 1030,5 hPa 0,0 l/m SW 0,00 h 83 W/m 13,4 km/h (3 Bft)
25.11.2011 13:00 1,7 C 97 % 1029,8 hPa 0,0 l/m SW 0,00 h 82 W/m 10,5 km/h (2 Bft)
25.11.2011 14:00 2,2 C 96 % 1029,5 hPa 0,0 l/m SW 0,00 h 72 W/m 8,2 km/h (2 Bft)
25.11.2011 15:00 2,4 C 96 % 1029,5 hPa 0,0 l/m SW 0,00 h 49 W/m 6,0 km/h (2 Bft)
25.11.2011 16:00 2,0 C 96 % 1029,5 hPa 0,0 l/m S-SW 0,00 h 10 W/m 8,4 km/h (2 Bft)
25.11.2011 17:00 1,4 C 96 % 1029,7 hPa 0,0 l/m S-SW 0,00 h 0 W/m 14,4 km/h (3 Bft)
25.11.2011 18:00 1,1 C 97 % 1030,3 hPa 0,0 l/m SW 0,00 h 0 W/m 5,7 km/h (1 Bft)
25.11.2011 19:00 0,6 C 97 % 1030,5 hPa 0,0 l/m W-SW 0,00 h 0 W/m 7,5 km/h (2 Bft)
25.11.2011 20:00 0,3 C 98 % 1030,5 hPa 0,0 l/m S-SW 0,00 h 0 W/m 10,5 km/h (2 Bft)
25.11.2011 21:00 0,1 C 98 % 1031,4 hPa 0,0 l/m S-SW 0,00 h 0 W/m 4,7 km/h (1 Bft)
25.11.2011 22:00 -0,2 C 98 % 1031,8 hPa 0,0 l/m S-SW 0,00 h 0 W/m 7,2 km/h (2 Bft)
25.11.2011 23:00 -0,2 C 98 % 1032,1 hPa 0,0 l/m S-SW 0,00 h 0 W/m 9,0 km/h (2 Bft)
26.11.2011 00:00 0,1 C 99 % 1032,0 hPa 0,0 l/m S-SW 0,00 h 0 W/m 12,5 km/h (3 Bft)
26.11.2011 01:00 0,1 C 99 % 1032,1 hPa 0,0 l/m S-SW 0,00 h 0 W/m 6,4 km/h (2 Bft)
26.11.2011 02:00 0,3 C 99 % 1032,5 hPa 0,0 l/m S-SW 0,00 h 0 W/m 4,4 km/h (1 Bft)
26.11.2011 03:00 0,7 C 99 % 1032,7 hPa 0,2 l/m S-SW 0,00 h 0 W/m 6,0 km/h (2 Bft)
26.11.2011 04:00 1,0 C 99 % 1032,6 hPa 0,0 l/m S-SW 0,00 h 0 W/m 12,2 km/h (2 Bft)
26.11.2011 05:00 1,2 C 99 % 1032,7 hPa 0,0 l/m S-SW 0,00 h 0 W/m 10,5 km/h (2 Bft)
26.11.2011 06:00 1,3 C 99 % 1033,3 hPa 0,0 l/m S-SW 0,00 h 0 W/m 3,1 km/h (1 Bft)
26.11.2011 07:00 1,3 C 99 % 1034,2 hPa 0,0 l/m NW 0,00 h 0 W/m 3,1 km/h (1 Bft)
26.11.2011 08:00 1,2 C 99 % 1034,9 hPa 0,0 l/m N 0,00 h 23 W/m 1,5 km/h (1 Bft)
26.11.2011 09:00 1,7 C 99 % 1034,8 hPa 0,0 l/m S-SW 0,00 h 70 W/m 5,1 km/h (1 Bft)
26.11.2011 10:00 2,3 C 99 % 1034,7 hPa 0,0 l/m S-SW 0,00 h 67 W/m 8,3 km/h (2 Bft)
26.11.2011 11:00 2,8 C 99 % 1034,1 hPa 0,0 l/m S-SW 0,00 h 81 W/m 5,1 km/h (1 Bft)
26.11.2011 12:00 3,6 C 99 % 1033,5 hPa 0,0 l/m S-SW 0,00 h 124 W/m 3,5 km/h (1 Bft)
26.11.2011 13:00 5,0 C 95 % 1033,0 hPa 0,0 l/m S-SW 0,33 h 171 W/m 2,0 km/h (1 Bft)
26.11.2011 14:00 5,5 C 94 % 1032,1 hPa 0,0 l/m S-SW 0,08 h 113 W/m 4,8 km/h (1 Bft)
26.11.2011 15:00 5,4 C 95 % 1031,6 hPa 0,0 l/m S-SW 0,08 h 55 W/m 6,8 km/h (2 Bft)
26.11.2011 16:00 4,6 C 95 % 1031,3 hPa 0,0 l/m SW 0,17 h 14 W/m 8,2 km/h (2 Bft)
26.11.2011 17:00 4,0 C 96 % 1031,6 hPa 0,0 l/m SW 0,00 h 0 W/m 8,8 km/h (2 Bft)
26.11.2011 18:00 3,5 C 97 % 1031,2 hPa 0,0 l/m SW 0,00 h 0 W/m 10,8 km/h (2 Bft)
26.11.2011 19:00 2,9 C 97 % 1031,0 hPa 0,0 l/m SW 0,00 h 0 W/m 4,3 km/h (1 Bft)
26.11.2011 20:00 2,4 C 97 % 1031,1 hPa 0,0 l/m N 0,00 h 0 W/m 1,3 km/h (1 Bft)
26.11.2011 21:00 2,2 C 98 % 1030,8 hPa 0,0 l/m SW 0,00 h 0 W/m 2,4 km/h (1 Bft)
26.11.2011 22:00 2,1 C 98 % 1030,5 hPa 0,0 l/m S-SW 0,00 h 0 W/m 5,9 km/h (2 Bft)
26.11.2011 23:00 1,8 C 98 % 1030,4 hPa 0,0 l/m S-SW 0,00 h 0 W/m 8,6 km/h (2 Bft)
27.11.2011 00:00 2,2 C 99 % 1029,9 hPa 0,0 l/m SW 0,00 h 0 W/m 8,2 km/h (2 Bft)
27.11.2011 01:00 2,8 C 99 % 1029,4 hPa 0,0 l/m SW 0,00 h 0 W/m 8,2 km/h (2 Bft)
27.11.2011 02:00 3,0 C 99 % 1028,9 hPa 0,0 l/m W-SW 0,00 h 0 W/m 9,4 km/h (2 Bft)
27.11.2011 03:00 2,9 C 99 % 1028,2 hPa 0,0 l/m SW 0,00 h 0 W/m 9,5 km/h (2 Bft)
27.11.2011 04:00 2,7 C 99 % 1027,3 hPa 0,0 l/m SW 0,00 h 0 W/m 8,0 km/h (2 Bft)
27.11.2011 05:00 2,3 C 99 % 1026,9 hPa 0,0 l/m S-SW 0,00 h 0 W/m 7,4 km/h (2 Bft)
27.11.2011 06:00 2,1 C 99 % 1026,4 hPa 0,0 l/m S-SW 0,00 h 0 W/m 7,6 km/h (2 Bft)
27.11.2011 07:00 1,8 C 99 % 1026,4 hPa 0,0 l/m SW 0,00 h 0 W/m 9,1 km/h (2 Bft)
27.11.2011 08:00 1,7 C 99 % 1026,4 hPa 0,0 l/m S-SW 0,00 h 14 W/m 13,6 km/h (3 Bft)
27.11.2011 09:00 2,1 C 99 % 1026,4 hPa 0,0 l/m S-SW 0,00 h 60 W/m 14,4 km/h (3 Bft)
27.11.2011 10:00 2,4 C 99 % 1026,6 hPa 0,0 l/m S-SW 0,25 h 135 W/m 15,3 km/h (3 Bft)
27.11.2011 11:00 3,5 C 99 % 1026,2 hPa 0,0 l/m S-SW 1,00 h 300 W/m 15,4 km/h (3 Bft)
27.11.2011 12:00 4,3 C 95 % 1025,4 hPa 0,0 l/m S 1,00 h 299 W/m 15,6 km/h (3 Bft)
27.11.2011 13:00 6,1 C 91 % 1024,7 hPa 0,0 l/m S 1,00 h 288 W/m 12,1 km/h (2 Bft)
27.11.2011 14:00 8,0 C 81 % 1024,1 hPa 0,0 l/m S-SW 1,00 h 204 W/m 13,2 km/h (3 Bft)
27.11.2011 15:00 7,5 C 80 % 1024,4 hPa 0,0 l/m S 0,33 h 62 W/m 9,3 km/h (2 Bft)
27.11.2011 16:00 6,1 C 82 % 1024,7 hPa 0,0 l/m S-SO 0,00 h 9 W/m 7,2 km/h (2 Bft)
27.11.2011 17:00 4,6 C 86 % 1025,6 hPa 0,0 l/m SO 0,00 h 0 W/m 3,3 km/h (1 Bft)
27.11.2011 18:00 2,8 C 92 % 1026,5 hPa 0,0 l/m S-SO 0,00 h 0 W/m 2,5 km/h (1 Bft)
27.11.2011 19:00 1,7 C 94 % 1027,2 hPa 0,0 l/m SW 0,00 h 0 W/m 2,9 km/h (1 Bft)
27.11.2011 20:00 1,9 C 93 % 1027,5 hPa 0,0 l/m SW 0,00 h 0 W/m 2,3 km/h (1 Bft)
27.11.2011 21:00 2,5 C 92 % 1028,0 hPa 0,0 l/m N 0,00 h 0 W/m 2,3 km/h (1 Bft)
27.11.2011 22:00 2,8 C 93 % 1028,3 hPa 0,0 l/m N 0,00 h 0 W/m 1,1 km/h (0 Bft)
27.11.2011 23:00 3,0 C 94 % 1028,8 hPa 0,0 l/m N 0,00 h 0 W/m 2,0 km/h (1 Bft)
Min-Datum _ 24.11.11 21.11.11 21.11.11 - - - - 21.11.11
_ Min-Zeit 06:05 14:35 15:25 - - - - 00:00
Minimum _ -2,3 C 67 % 1017,3 hPa - - - - 0,0 km/h (0 Bft)
Max-Datum _ 21.11.11 26.11.11 24.11.11 22.11.11 - 21.11.11 21.11.11 25.11.11
_ Max-Zeit 14:10 00:45 09:55 01:10 - 09:15 12:10 17:05
Maximum _ 10,6 C 100 % 1035,2 hPa 0,2 l/m - 0,08 h 360 W/m 20,9 km/h
SW (4 Bft)
Durchschnitt _ 0,9 C 97 % 1027,1 hPa #0,4 l/m SW #11:00 h 83 W/m 5,5 km/h (1 Bft)